createdAt,value
2024-01-11T00:00:49.278Z,-3.23
2024-01-11T00:01:49.397Z,-3.23
2024-01-11T00:02:49.314Z,-3.23
2024-01-11T00:03:49.191Z,-3.24
2024-01-11T00:04:49.262Z,-3.24
2024-01-11T00:05:49.400Z,-3.24
2024-01-11T00:06:49.245Z,-3.26
2024-01-11T00:07:49.217Z,-3.24
2024-01-11T00:08:49.150Z,-3.26
2024-01-11T00:09:49.194Z,-3.27
2024-01-11T00:10:49.191Z,-3.27
2024-01-11T00:11:49.159Z,-3.27
2024-01-11T00:12:49.105Z,-3.27
2024-01-11T00:13:49.200Z,-3.29
2024-01-11T00:14:49.085Z,-3.29
2024-01-11T00:15:49.125Z,-3.29
2024-01-11T00:16:49.062Z,-3.26
2024-01-11T00:17:49.379Z,-3.26
2024-01-11T00:18:49.166Z,-3.27
2024-01-11T00:19:49.061Z,-3.27
2024-01-11T00:20:49.024Z,-3.30
2024-01-11T00:21:49.027Z,-3.31
2024-01-11T00:22:49.060Z,-3.36
2024-01-11T00:23:48.989Z,-3.38
2024-01-11T00:24:49.094Z,-3.39
2024-01-11T00:25:48.966Z,-3.39
2024-01-11T00:26:49.096Z,-3.42
2024-01-11T00:27:48.951Z,-3.42
2024-01-11T00:28:48.964Z,-3.41
2024-01-11T00:29:49.038Z,-3.44
2024-01-11T00:30:49.010Z,-3.47
2024-01-11T00:31:48.979Z,-3.47
2024-01-11T00:32:49.011Z,-3.48
2024-01-11T00:33:49.000Z,-3.52
2024-01-11T00:34:48.935Z,-3.55
2024-01-11T00:35:48.974Z,-3.59
2024-01-11T00:36:48.865Z,-3.63
2024-01-11T00:37:52.614Z,-3.66
2024-01-11T00:38:48.838Z,-3.70
2024-01-11T00:39:48.813Z,-3.77
2024-01-11T00:40:48.808Z,-3.81
2024-01-11T00:41:48.888Z,-3.85
2024-01-11T00:42:48.818Z,-3.89
2024-01-11T00:43:48.837Z,-3.91
2024-01-11T00:44:48.767Z,-3.91
2024-01-11T00:45:48.828Z,-3.89
2024-01-11T00:46:48.754Z,-3.87
2024-01-11T00:47:48.997Z,-3.85
2024-01-11T00:48:50.100Z,-3.84
2024-01-11T00:49:48.877Z,-3.82
2024-01-11T00:50:48.785Z,-3.82
2024-01-11T00:51:48.696Z,-3.79
2024-01-11T00:52:48.687Z,-3.79
2024-01-11T00:53:48.732Z,-3.78
2024-01-11T00:54:48.750Z,-3.78
2024-01-11T00:55:48.659Z,-3.79
2024-01-11T00:56:52.308Z,-3.79
2024-01-11T00:57:48.627Z,-3.77
2024-01-11T00:58:48.634Z,-3.74
2024-01-11T00:59:48.670Z,-3.74
2024-01-11T01:00:48.683Z,-3.74
2024-01-11T01:01:48.596Z,-3.72
2024-01-11T01:02:48.744Z,-3.69
2024-01-11T01:03:48.637Z,-3.69
2024-01-11T01:04:48.559Z,-3.70
2024-01-11T01:05:48.652Z,-3.72
2024-01-11T01:06:48.842Z,-3.74
2024-01-11T01:07:48.528Z,-3.74
2024-01-11T01:08:48.595Z,-3.72
2024-01-11T01:09:48.580Z,-3.72
2024-01-11T01:10:48.506Z,-3.77
2024-01-11T01:11:48.553Z,-3.79
2024-01-11T01:12:48.498Z,-3.84
2024-01-11T01:13:48.478Z,-3.88
2024-01-11T01:14:48.482Z,-3.89
2024-01-11T01:15:48.560Z,-3.97
2024-01-11T01:16:48.444Z,-4.00
2024-01-11T01:17:48.495Z,-4.02
2024-01-11T01:18:49.126Z,-4.06
2024-01-11T01:19:48.404Z,-4.07
2024-01-11T01:20:48.433Z,-4.12
2024-01-11T01:21:48.508Z,-4.15
2024-01-11T01:22:48.380Z,-4.20
2024-01-11T01:23:48.362Z,-4.23
2024-01-11T01:24:48.365Z,-4.24
2024-01-11T01:25:48.502Z,-4.24
2024-01-11T01:26:52.038Z,-4.23
2024-01-11T01:27:48.324Z,-4.20
2024-01-11T01:28:48.324Z,-4.20
2024-01-11T01:29:48.378Z,-4.17
2024-01-11T01:30:48.388Z,-4.15
2024-01-11T01:31:48.405Z,-4.12
2024-01-11T01:32:48.395Z,-4.12
2024-01-11T01:33:48.342Z,-4.17
2024-01-11T01:34:48.895Z,-4.20
2024-01-11T01:35:48.272Z,-4.23
2024-01-11T01:36:48.333Z,-4.27
2024-01-11T01:37:48.221Z,-4.31
2024-01-11T01:38:48.219Z,-4.36
2024-01-11T01:39:48.198Z,-4.41
2024-01-11T01:40:48.187Z,-4.46
2024-01-11T01:41:48.236Z,-4.49
2024-01-11T01:42:48.173Z,-4.52
2024-01-11T01:43:48.156Z,-4.54
2024-01-11T01:44:48.150Z,-4.59
2024-01-11T01:45:48.152Z,-4.60
2024-01-11T01:46:48.293Z,-4.62
2024-01-11T01:47:48.295Z,-4.62
2024-01-11T01:48:48.325Z,-4.63
2024-01-11T01:49:48.123Z,-4.64
2024-01-11T01:50:48.133Z,-4.64
2024-01-11T01:51:48.146Z,-4.67
2024-01-11T01:52:48.067Z,-4.67
2024-01-11T01:53:48.148Z,-4.67
2024-01-11T01:54:48.069Z,-4.70
2024-01-11T01:55:48.036Z,-4.66
2024-01-11T01:56:48.694Z,-4.64
2024-01-11T01:57:48.009Z,-4.66
2024-01-11T01:58:48.079Z,-4.70
2024-01-11T01:59:48.063Z,-4.70
2024-01-11T02:00:48.002Z,-4.75
2024-01-11T02:01:47.978Z,-4.78
2024-01-11T02:02:48.189Z,-4.78
2024-01-11T02:03:48.078Z,-4.78
2024-01-11T02:04:48.053Z,-4.81
2024-01-11T02:05:48.049Z,-4.82
2024-01-11T02:06:47.961Z,-4.82
2024-01-11T02:07:47.978Z,-4.84
2024-01-11T02:08:47.910Z,-4.89
2024-01-11T02:09:47.901Z,-4.91
2024-01-11T02:10:47.994Z,-4.92
2024-01-11T02:11:47.867Z,-4.95
2024-01-11T02:12:47.882Z,-4.96
2024-01-11T02:13:47.882Z,-4.96
2024-01-11T02:14:47.837Z,-5.01
2024-01-11T02:15:47.883Z,-5.02
2024-01-11T02:16:47.846Z,-5.05
2024-01-11T02:17:47.915Z,-5.09
2024-01-11T02:18:48.015Z,-5.13
2024-01-11T02:19:47.800Z,-5.14
2024-01-11T02:20:47.829Z,-5.17
2024-01-11T02:21:47.763Z,-5.18
2024-01-11T02:22:47.785Z,-5.21
2024-01-11T02:23:47.856Z,-5.24
2024-01-11T02:24:47.818Z,-5.25
2024-01-11T02:25:47.747Z,-5.29
2024-01-11T02:26:47.724Z,-5.29
2024-01-11T02:27:47.748Z,-5.31
2024-01-11T02:28:47.713Z,-5.31
2024-01-11T02:29:47.896Z,-5.33
2024-01-11T02:30:47.724Z,-5.33
2024-01-11T02:31:47.678Z,-5.33
2024-01-11T02:32:47.790Z,-5.33
2024-01-11T02:33:47.708Z,-5.36
2024-01-11T02:34:47.639Z,-5.36
2024-01-11T02:35:48.353Z,-5.38
2024-01-11T02:36:47.621Z,-5.39
2024-01-11T02:37:47.672Z,-5.39
2024-01-11T02:38:47.603Z,-5.41
2024-01-11T02:39:47.591Z,-5.41
2024-01-11T02:40:47.604Z,-5.42
2024-01-11T02:41:47.660Z,-5.41
2024-01-11T02:42:47.580Z,-5.41
2024-01-11T02:43:47.547Z,-5.41
2024-01-11T02:44:47.560Z,-5.39
2024-01-11T02:45:47.527Z,-5.41
2024-01-11T02:46:47.649Z,-5.39
2024-01-11T02:47:47.608Z,-5.39
2024-01-11T02:48:47.627Z,-5.38
2024-01-11T02:49:47.480Z,-5.36
2024-01-11T02:50:47.610Z,-5.31
2024-01-11T02:51:47.565Z,-5.25
2024-01-11T02:52:47.456Z,-5.20
2024-01-11T02:53:47.446Z,-5.17
2024-01-11T02:54:47.433Z,-5.11
2024-01-11T02:55:47.432Z,-5.10
2024-01-11T02:56:47.610Z,-5.10
2024-01-11T02:57:47.498Z,-5.09
2024-01-11T02:58:47.420Z,-5.10
2024-01-11T02:59:47.394Z,-5.10
2024-01-11T03:00:47.414Z,-5.10
2024-01-11T03:01:47.364Z,-5.13
2024-01-11T03:02:51.243Z,-5.13
2024-01-11T03:03:48.128Z,-5.13
2024-01-11T03:04:47.335Z,-5.14
2024-01-11T03:05:47.712Z,-5.13
2024-01-11T03:06:47.389Z,-5.14
2024-01-11T03:07:47.299Z,-5.13
2024-01-11T03:08:47.287Z,-5.17
2024-01-11T03:09:47.284Z,-5.13
2024-01-11T03:10:47.376Z,-5.14
2024-01-11T03:11:47.262Z,-5.11
2024-01-11T03:12:47.248Z,-5.10
2024-01-11T03:13:47.249Z,-5.11
2024-01-11T03:14:47.299Z,-5.10
2024-01-11T03:15:47.318Z,-5.11
2024-01-11T03:16:47.272Z,-5.13
2024-01-11T03:17:47.364Z,-5.14
2024-01-11T03:18:47.301Z,-5.17
2024-01-11T03:19:47.179Z,-5.18
2024-01-11T03:20:47.340Z,-5.20
2024-01-11T03:21:47.162Z,-5.22
2024-01-11T03:22:47.193Z,-5.28
2024-01-11T03:23:47.188Z,-5.28
2024-01-11T03:24:47.121Z,-5.31
2024-01-11T03:25:47.143Z,-5.35
2024-01-11T03:26:47.297Z,-5.36
2024-01-11T03:27:47.123Z,-5.36
2024-01-11T03:28:47.093Z,-5.36
2024-01-11T03:29:47.110Z,-5.39
2024-01-11T03:30:47.123Z,-5.39
2024-01-11T03:31:47.176Z,-5.39
2024-01-11T03:32:47.238Z,-5.39
2024-01-11T03:33:47.124Z,-5.36
2024-01-11T03:34:47.012Z,-5.38
2024-01-11T03:35:47.052Z,-5.38
2024-01-11T03:36:47.067Z,-5.36
2024-01-11T03:37:46.986Z,-5.35
2024-01-11T03:38:49.856Z,-5.33
2024-01-11T03:39:46.961Z,-5.35
2024-01-11T03:40:46.949Z,-5.33
2024-01-11T03:41:46.995Z,-5.31
2024-01-11T03:42:46.947Z,-5.28
2024-01-11T03:43:46.997Z,-5.25
2024-01-11T03:44:47.083Z,-5.21
2024-01-11T03:45:46.919Z,-5.20
2024-01-11T03:46:46.898Z,-5.21
2024-01-11T03:47:47.006Z,-5.22
2024-01-11T03:48:47.196Z,-5.22
2024-01-11T03:49:46.862Z,-5.22
2024-01-11T03:50:46.872Z,-5.25
2024-01-11T03:51:46.854Z,-5.28
2024-01-11T03:52:46.825Z,-5.32
2024-01-11T03:53:47.070Z,-5.33
2024-01-11T03:54:46.869Z,-5.33
2024-01-11T03:55:46.795Z,-5.33
2024-01-11T03:56:46.940Z,-5.33
2024-01-11T03:57:46.807Z,-5.35
2024-01-11T03:58:46.899Z,-5.35
2024-01-11T03:59:46.824Z,-5.32
2024-01-11T04:00:46.879Z,-5.31
2024-01-11T04:01:46.837Z,-5.29
2024-01-11T04:02:46.760Z,-5.29
2024-01-11T04:03:46.761Z,-5.29
2024-01-11T04:04:46.767Z,-5.31
2024-01-11T04:05:46.858Z,-5.29
2024-01-11T04:06:46.739Z,-5.29
2024-01-11T04:07:46.706Z,-5.28
2024-01-11T04:08:46.831Z,-5.24
2024-01-11T04:09:46.739Z,-5.21
2024-01-11T04:10:46.722Z,-5.18
2024-01-11T04:11:46.759Z,-5.10
2024-01-11T04:12:46.624Z,-5.02
2024-01-11T04:13:46.618Z,-4.95
2024-01-11T04:14:46.713Z,-4.92
2024-01-11T04:15:46.588Z,-4.87
2024-01-11T04:16:46.591Z,-4.84
2024-01-11T04:17:46.819Z,-4.81
2024-01-11T04:18:46.688Z,-4.80
2024-01-11T04:19:46.673Z,-4.78
2024-01-11T04:20:46.613Z,-4.81
2024-01-11T04:21:46.537Z,-4.80
2024-01-11T04:22:46.526Z,-4.75
2024-01-11T04:23:46.567Z,-4.74
2024-01-11T04:24:46.499Z,-4.74
2024-01-11T04:25:46.674Z,-4.74
2024-01-11T04:26:46.542Z,-4.73
2024-01-11T04:27:46.471Z,-4.70
2024-01-11T04:28:46.468Z,-4.71
2024-01-11T04:29:46.576Z,-4.73
2024-01-11T04:30:46.551Z,-4.77
2024-01-11T04:31:46.506Z,-4.82
2024-01-11T04:32:46.474Z,-4.82
2024-01-11T04:33:46.483Z,-4.84
2024-01-11T04:34:46.389Z,-4.82
2024-01-11T04:35:46.520Z,-4.80
2024-01-11T04:36:46.377Z,-4.81
2024-01-11T04:37:46.362Z,-4.80
2024-01-11T04:38:46.416Z,-4.81
2024-01-11T04:39:46.371Z,-4.81
2024-01-11T04:40:46.357Z,-4.85
2024-01-11T04:41:46.410Z,-4.89
2024-01-11T04:42:46.383Z,-4.89
2024-01-11T04:43:46.303Z,-4.95
2024-01-11T04:44:46.372Z,-4.96
2024-01-11T04:45:46.418Z,-4.98
2024-01-11T04:46:46.288Z,-4.99
2024-01-11T04:47:46.480Z,-4.99
2024-01-11T04:48:46.411Z,-4.98
2024-01-11T04:49:46.298Z,-4.99
2024-01-11T04:50:46.456Z,-4.99
2024-01-11T04:51:46.219Z,-4.99
2024-01-11T04:52:46.206Z,-4.98
2024-01-11T04:53:46.325Z,-4.96
2024-01-11T04:54:46.211Z,-4.98
2024-01-11T04:55:46.279Z,-4.95
2024-01-11T04:56:46.251Z,-4.93
2024-01-11T04:57:46.151Z,-4.93
2024-01-11T04:58:53.191Z,-4.91
2024-01-11T04:59:46.203Z,-4.92
2024-01-11T05:00:48.789Z,-4.93
2024-01-11T05:01:48.873Z,-4.92
2024-01-11T05:02:46.256Z,-4.92
2024-01-11T05:03:53.718Z,-4.91
2024-01-11T05:04:46.129Z,-4.92
2024-01-11T05:05:46.403Z,-4.95
2024-01-11T05:06:46.155Z,-5.01
2024-01-11T05:07:46.100Z,-5.02
2024-01-11T05:08:46.190Z,-5.05
2024-01-11T05:09:46.069Z,-5.05
2024-01-11T05:10:46.055Z,-5.02
2024-01-11T05:11:46.282Z,-4.99
2024-01-11T05:12:46.092Z,-5.01
2024-01-11T05:13:46.041Z,-5.01
2024-01-11T05:14:46.065Z,-4.99
2024-01-11T05:15:46.044Z,-4.99
2024-01-11T05:16:45.981Z,-5.01
2024-01-11T05:17:46.128Z,-5.01
2024-01-11T05:18:46.017Z,-5.02
2024-01-11T05:19:46.109Z,-5.05
2024-01-11T05:20:46.085Z,-5.07
2024-01-11T05:21:46.100Z,-5.07
2024-01-11T05:22:45.918Z,-5.05
2024-01-11T05:23:46.053Z,-5.09
2024-01-11T05:24:46.045Z,-5.11
2024-01-11T05:25:46.082Z,-5.10
2024-01-11T05:26:45.964Z,-5.05
2024-01-11T05:27:45.956Z,-5.02
2024-01-11T05:28:45.881Z,-5.02
2024-01-11T05:29:45.892Z,-5.02
2024-01-11T05:30:45.941Z,-5.03
2024-01-11T05:31:45.947Z,-5.05
2024-01-11T05:32:46.020Z,-5.07
2024-01-11T05:33:46.273Z,-5.09
2024-01-11T05:34:45.937Z,-5.07
2024-01-11T05:35:45.818Z,-5.09
2024-01-11T05:36:45.804Z,-5.10
2024-01-11T05:37:45.762Z,-5.07
2024-01-11T05:38:45.828Z,-5.07
2024-01-11T05:39:45.810Z,-5.05
2024-01-11T05:40:45.826Z,-5.01
2024-01-11T05:41:45.749Z,-5.02
2024-01-11T05:42:45.750Z,-5.01
2024-01-11T05:43:45.810Z,-4.99
2024-01-11T05:44:45.796Z,-4.95
2024-01-11T05:45:48.105Z,-4.85
2024-01-11T05:46:45.675Z,-4.81
2024-01-11T05:47:45.745Z,-4.77
2024-01-11T05:48:45.806Z,-4.71
2024-01-11T05:49:45.661Z,-4.66
2024-01-11T05:50:45.793Z,-4.62
2024-01-11T05:51:45.695Z,-4.56
2024-01-11T05:52:45.614Z,-4.49
2024-01-11T05:53:45.685Z,-4.49
2024-01-11T05:54:45.607Z,-4.48
2024-01-11T05:55:45.594Z,-4.48
2024-01-11T05:56:45.612Z,-4.46
2024-01-11T05:57:45.568Z,-4.45
2024-01-11T05:58:45.630Z,-4.46
2024-01-11T05:59:45.591Z,-4.48
2024-01-11T06:00:45.621Z,-4.46
2024-01-11T06:01:45.655Z,-4.46
2024-01-11T06:02:45.542Z,-4.48
2024-01-11T06:03:45.548Z,-4.48
2024-01-11T06:04:48.395Z,-4.48
2024-01-11T06:05:45.573Z,-4.49
2024-01-11T06:06:45.618Z,-4.48
2024-01-11T06:07:45.464Z,-4.52
2024-01-11T06:08:45.468Z,-4.52
2024-01-11T06:09:45.442Z,-4.54
2024-01-11T06:10:45.424Z,-4.54
2024-01-11T06:11:45.508Z,-4.54
2024-01-11T06:12:45.414Z,-4.54
2024-01-11T06:13:45.402Z,-4.54
2024-01-11T06:14:45.413Z,-4.54
2024-01-11T06:15:45.490Z,-4.53
2024-01-11T06:16:45.452Z,-4.53
2024-01-11T06:17:45.452Z,-4.53
2024-01-11T06:18:45.526Z,-4.53
2024-01-11T06:19:45.343Z,-4.56
2024-01-11T06:20:45.383Z,-4.56
2024-01-11T06:21:45.383Z,-4.56
2024-01-11T06:22:46.351Z,-4.57
2024-01-11T06:23:45.433Z,-4.59
2024-01-11T06:24:45.286Z,-4.57
2024-01-11T06:25:45.447Z,-4.53
2024-01-11T06:26:45.314Z,-4.53
2024-01-11T06:27:45.278Z,-4.53
2024-01-11T06:28:45.328Z,-4.56
2024-01-11T06:29:45.325Z,-4.56
2024-01-11T06:30:45.310Z,-4.57
2024-01-11T06:31:45.320Z,-4.60
2024-01-11T06:32:45.284Z,-4.62
2024-01-11T06:33:47.187Z,-4.63
2024-01-11T06:34:45.197Z,-4.67
2024-01-11T06:35:45.238Z,-4.71
2024-01-11T06:36:45.165Z,-4.73
2024-01-11T06:37:45.243Z,-4.74
2024-01-11T06:38:45.251Z,-4.74
2024-01-11T06:39:45.143Z,-4.78
2024-01-11T06:40:45.111Z,-4.82
2024-01-11T06:41:45.180Z,-4.85
2024-01-11T06:42:45.122Z,-4.87
2024-01-11T06:43:45.224Z,-4.87
2024-01-11T06:44:45.129Z,-4.84
2024-01-11T06:45:45.101Z,-4.81
2024-01-11T06:46:45.077Z,-4.80
2024-01-11T06:47:45.220Z,-4.81
2024-01-11T06:48:45.225Z,-4.89
2024-01-11T06:49:45.065Z,-4.98
2024-01-11T06:50:45.147Z,-5.07
2024-01-11T06:51:45.394Z,-5.17
2024-01-11T06:52:45.103Z,-5.24
2024-01-11T06:53:45.180Z,-5.33
2024-01-11T06:54:44.973Z,-5.38
2024-01-11T06:55:45.223Z,-5.43
2024-01-11T06:56:45.078Z,-5.49
2024-01-11T06:57:44.947Z,-5.50
2024-01-11T06:58:44.930Z,-5.50
2024-01-11T06:59:45.116Z,-5.49
2024-01-11T07:00:45.106Z,-5.43
2024-01-11T07:01:44.917Z,-5.36
2024-01-11T07:02:45.041Z,-5.35
2024-01-11T07:03:44.925Z,-5.32
2024-01-11T07:04:45.011Z,-5.33
2024-01-11T07:05:44.995Z,-5.32
2024-01-11T07:06:44.947Z,-5.35
2024-01-11T07:07:44.848Z,-5.36
2024-01-11T07:08:45.041Z,-5.39
2024-01-11T07:09:44.887Z,-5.39
2024-01-11T07:10:44.897Z,-5.35
2024-01-11T07:11:45.012Z,-5.35
2024-01-11T07:12:44.841Z,-5.32
2024-01-11T07:13:44.778Z,-5.28
2024-01-11T07:14:44.810Z,-5.24
2024-01-11T07:15:44.810Z,-5.20
2024-01-11T07:16:44.828Z,-5.18
2024-01-11T07:17:44.834Z,-5.17
2024-01-11T07:18:44.827Z,-5.14
2024-01-11T07:19:44.840Z,-5.17
2024-01-11T07:20:44.908Z,-5.14
2024-01-11T07:21:44.710Z,-5.14
2024-01-11T07:22:44.800Z,-5.09
2024-01-11T07:23:44.760Z,-5.10
2024-01-11T07:24:44.685Z,-5.05
2024-01-11T07:25:44.732Z,-5.05
2024-01-11T07:26:44.767Z,-5.02
2024-01-11T07:27:44.655Z,-5.01
2024-01-11T07:28:44.626Z,-4.99
2024-01-11T07:29:44.720Z,-4.96
2024-01-11T07:30:44.660Z,-4.95
2024-01-11T07:31:44.737Z,-4.96
2024-01-11T07:32:44.941Z,-4.95
2024-01-11T07:33:44.671Z,-4.93
2024-01-11T07:34:44.618Z,-4.95
2024-01-11T07:35:44.580Z,-4.95
2024-01-11T07:36:44.675Z,-4.96
2024-01-11T07:37:44.549Z,-4.93
2024-01-11T07:38:44.615Z,-4.93
2024-01-11T07:39:44.524Z,-4.91
2024-01-11T07:40:44.570Z,-4.89
2024-01-11T07:41:44.617Z,-4.87
2024-01-11T07:42:44.482Z,-4.82
2024-01-11T07:43:53.391Z,-4.78
2024-01-11T07:44:45.554Z,-4.74
2024-01-11T07:45:44.461Z,-4.73
2024-01-11T07:46:52.372Z,-4.73
2024-01-11T07:47:45.561Z,-4.74
2024-01-11T07:48:44.597Z,-4.75
2024-01-11T07:49:44.458Z,-4.77
2024-01-11T07:50:44.468Z,-4.80
2024-01-11T07:51:44.399Z,-4.80
2024-01-11T07:52:44.591Z,-4.80
2024-01-11T07:53:44.428Z,-4.82
2024-01-11T07:54:44.370Z,-4.82
2024-01-11T07:55:44.348Z,-4.82
2024-01-11T07:56:44.605Z,-4.82
2024-01-11T07:57:44.445Z,-4.85
2024-01-11T07:58:46.016Z,-4.87
2024-01-11T07:59:44.386Z,-4.89
2024-01-11T08:00:44.355Z,-4.89
2024-01-11T08:01:44.306Z,-4.91
2024-01-11T08:02:44.564Z,-4.91
2024-01-11T08:03:44.282Z,-4.91
2024-01-11T08:04:47.034Z,-4.93
2024-01-11T08:05:44.480Z,-4.93
2024-01-11T08:06:44.401Z,-4.95
2024-01-11T08:07:44.297Z,-4.96
2024-01-11T08:08:44.269Z,-4.96
2024-01-11T08:09:44.263Z,-4.98
2024-01-11T08:10:44.203Z,-4.96
2024-01-11T08:11:48.846Z,-4.96
2024-01-11T08:12:45.252Z,-4.96
2024-01-11T08:13:44.172Z,-4.96
2024-01-11T08:14:44.286Z,-4.96
2024-01-11T08:15:44.132Z,-4.98
2024-01-11T08:16:44.130Z,-4.96
2024-01-11T08:17:44.996Z,-4.96
2024-01-11T08:18:44.236Z,-4.96
2024-01-11T08:19:44.103Z,-4.96
2024-01-11T08:20:44.219Z,-4.99
2024-01-11T08:21:44.138Z,-5.01
2024-01-11T08:22:44.098Z,-5.01
2024-01-11T08:23:44.311Z,-5.02
2024-01-11T08:24:44.048Z,-5.02
2024-01-11T08:25:44.045Z,-4.96
2024-01-11T08:26:44.123Z,-4.93
2024-01-11T08:27:44.037Z,-4.89
2024-01-11T08:28:44.043Z,-4.87
2024-01-11T08:29:44.126Z,-4.84
2024-01-11T08:30:44.068Z,-4.82
2024-01-11T08:31:44.040Z,-4.78
2024-01-11T08:32:44.188Z,-4.75
2024-01-11T08:33:44.106Z,-4.73
2024-01-11T08:34:44.247Z,-4.71
2024-01-11T08:35:44.097Z,-4.67
2024-01-11T08:36:43.931Z,-4.66
2024-01-11T08:37:43.916Z,-4.64
2024-01-11T08:38:43.996Z,-4.64
2024-01-11T08:39:44.078Z,-4.67
2024-01-11T08:40:43.998Z,-4.66
2024-01-11T08:41:44.076Z,-4.67
2024-01-11T08:42:43.866Z,-4.66
2024-01-11T08:43:43.857Z,-4.64
2024-01-11T08:44:44.066Z,-4.64
2024-01-11T08:45:43.900Z,-4.62
2024-01-11T08:46:43.833Z,-4.59
2024-01-11T08:47:43.924Z,-4.59
2024-01-11T08:48:43.869Z,-4.59
2024-01-11T08:49:43.798Z,-4.57
2024-01-11T08:50:44.087Z,-4.56
2024-01-11T08:51:43.785Z,-4.54
2024-01-11T08:52:43.760Z,-4.54
2024-01-11T08:53:43.901Z,-4.52
2024-01-11T08:54:43.751Z,-4.49
2024-01-11T08:55:46.074Z,-4.48
2024-01-11T08:56:43.751Z,-4.44
2024-01-11T08:57:43.769Z,-4.41
2024-01-11T08:58:43.900Z,-4.35
2024-01-11T08:59:43.807Z,-4.30
2024-01-11T09:00:43.794Z,-4.25
2024-01-11T09:01:52.886Z,-4.24
2024-01-11T09:02:44.719Z,-4.24
2024-01-11T09:03:43.791Z,-4.24
2024-01-11T09:04:43.713Z,-4.23
2024-01-11T09:05:43.663Z,-4.24
2024-01-11T09:06:43.748Z,-4.23
2024-01-11T09:07:43.757Z,-4.21
2024-01-11T09:08:43.711Z,-4.20
2024-01-11T09:09:48.028Z,-4.17
2024-01-11T09:10:44.724Z,-4.15
2024-01-11T09:11:43.658Z,-4.14
2024-01-11T09:12:43.626Z,-4.12
2024-01-11T09:13:50.581Z,-4.09
2024-01-11T09:14:43.719Z,-4.09
2024-01-11T09:15:43.541Z,-4.07
2024-01-11T09:16:43.513Z,-4.06
2024-01-11T09:17:43.614Z,-4.06
2024-01-11T09:18:45.478Z,-4.07
2024-01-11T09:19:43.581Z,-4.05
2024-01-11T09:20:43.607Z,-4.05
2024-01-11T09:21:43.465Z,-4.02
2024-01-11T09:22:43.447Z,-4.00
2024-01-11T09:23:43.462Z,-3.99
2024-01-11T09:24:43.491Z,-3.96
2024-01-11T09:25:43.470Z,-3.92
2024-01-11T09:26:43.412Z,-3.89
2024-01-11T09:27:43.416Z,-3.88
2024-01-11T09:28:43.380Z,-3.84
2024-01-11T09:29:43.525Z,-3.77
2024-01-11T09:30:43.434Z,-3.72
2024-01-11T09:31:43.353Z,-3.66
2024-01-11T09:32:43.504Z,-3.63
2024-01-11T09:33:43.471Z,-3.60
2024-01-11T09:34:43.380Z,-3.55
2024-01-11T09:35:43.347Z,-3.49
2024-01-11T09:36:43.300Z,-3.48
2024-01-11T09:37:43.311Z,-3.48
2024-01-11T09:38:43.491Z,-3.47
2024-01-11T09:39:43.304Z,-3.48
2024-01-11T09:40:43.254Z,-3.45
2024-01-11T09:41:43.266Z,-3.47
2024-01-11T09:42:43.552Z,-3.44
2024-01-11T09:43:43.327Z,-3.41
2024-01-11T09:44:43.410Z,-3.38
2024-01-11T09:45:43.214Z,-3.38
2024-01-11T09:46:43.183Z,-3.34
2024-01-11T09:47:43.258Z,-3.30
2024-01-11T09:48:43.350Z,-3.29
2024-01-11T09:49:43.154Z,-3.26
2024-01-11T09:50:43.334Z,-3.26
2024-01-11T09:51:43.232Z,-3.23
2024-01-11T09:52:43.241Z,-3.21
2024-01-11T09:53:43.260Z,-3.20
2024-01-11T09:54:43.129Z,-3.16
2024-01-11T09:55:43.161Z,-3.16
2024-01-11T09:56:43.301Z,-3.13
2024-01-11T09:57:43.120Z,-3.08
2024-01-11T09:58:43.143Z,-3.05
2024-01-11T09:59:43.138Z,-3.02
2024-01-11T10:00:43.113Z,-2.97
2024-01-11T10:01:43.144Z,-2.94
2024-01-11T10:02:43.058Z,-2.91
2024-01-11T10:03:43.206Z,-2.91
2024-01-11T10:04:43.001Z,-2.88
2024-01-11T10:05:43.683Z,-2.87
2024-01-11T10:06:43.111Z,-2.84
2024-01-11T10:07:43.010Z,-2.84
2024-01-11T10:08:43.062Z,-2.82
2024-01-11T10:09:42.944Z,-2.82
2024-01-11T10:10:43.921Z,-2.82
2024-01-11T10:11:42.950Z,-2.79
2024-01-11T10:12:43.214Z,-2.77
2024-01-11T10:13:42.900Z,-2.76
2024-01-11T10:14:42.954Z,-2.73
2024-01-11T10:15:42.883Z,-2.67
2024-01-11T10:16:42.907Z,-2.63
2024-01-11T10:17:43.185Z,-2.56
2024-01-11T10:18:43.173Z,-2.52
2024-01-11T10:19:43.054Z,-2.45
2024-01-11T10:20:43.067Z,-2.40
2024-01-11T10:21:42.815Z,-2.35
2024-01-11T10:22:42.942Z,-2.30
2024-01-11T10:23:42.857Z,-2.27
2024-01-11T10:24:42.868Z,-2.27
2024-01-11T10:25:42.780Z,-2.26
2024-01-11T10:26:42.796Z,-2.27
2024-01-11T10:27:42.825Z,-2.27
2024-01-11T10:28:42.851Z,-2.24
2024-01-11T10:29:42.791Z,-2.21
2024-01-11T10:30:42.892Z,-2.21
2024-01-11T10:31:42.730Z,-2.19
2024-01-11T10:32:42.921Z,-2.19
2024-01-11T10:33:42.786Z,-2.18
2024-01-11T10:34:42.762Z,-2.14
2024-01-11T10:35:42.701Z,-2.09
2024-01-11T10:36:42.669Z,-2.09
2024-01-11T10:37:42.665Z,-2.06
2024-01-11T10:38:42.836Z,-2.01
2024-01-11T10:39:42.642Z,-1.97
2024-01-11T10:40:42.634Z,-1.94
2024-01-11T10:41:42.959Z,-1.91
2024-01-11T10:42:42.608Z,-1.90
2024-01-11T10:43:42.609Z,-1.90
2024-01-11T10:44:42.775Z,-1.90
2024-01-11T10:45:42.596Z,-1.88
2024-01-11T10:46:42.578Z,-1.90
2024-01-11T10:47:42.684Z,-1.90
2024-01-11T10:48:42.613Z,-1.86
2024-01-11T10:49:42.614Z,-1.90
2024-01-11T10:50:42.849Z,-1.86
2024-01-11T10:51:42.600Z,-1.86
2024-01-11T10:52:42.611Z,-1.88
2024-01-11T10:53:42.509Z,-1.85
2024-01-11T10:54:42.481Z,-1.85
2024-01-11T10:55:42.560Z,-1.86
2024-01-11T10:56:42.795Z,-1.83
2024-01-11T10:57:42.552Z,-1.83
2024-01-11T10:58:42.449Z,-1.82
2024-01-11T10:59:44.397Z,-1.79
2024-01-11T11:00:42.470Z,-1.80
2024-01-11T11:01:42.423Z,-1.80
2024-01-11T11:02:42.454Z,-1.82
2024-01-11T11:03:42.425Z,-1.79
2024-01-11T11:04:42.438Z,-1.78
2024-01-11T11:05:42.610Z,-1.76
2024-01-11T11:06:42.516Z,-1.75
2024-01-11T11:07:42.438Z,-1.72
2024-01-11T11:08:42.514Z,-1.67
2024-01-11T11:09:42.388Z,-1.62
2024-01-11T11:10:42.419Z,-1.61
2024-01-11T11:11:42.557Z,-1.59
2024-01-11T11:12:42.368Z,-1.55
2024-01-11T11:13:42.313Z,-1.51
2024-01-11T11:14:42.580Z,-1.51
2024-01-11T11:15:42.292Z,-1.47
2024-01-11T11:16:42.264Z,-1.46
2024-01-11T11:17:42.470Z,-1.43
2024-01-11T11:18:42.266Z,-1.43
2024-01-11T11:19:42.286Z,-1.43
2024-01-11T11:20:42.312Z,-1.39
2024-01-11T11:21:42.927Z,-1.39
2024-01-11T11:22:42.238Z,-1.36
2024-01-11T11:23:42.270Z,-1.31
2024-01-11T11:24:42.236Z,-1.29
2024-01-11T11:25:42.163Z,-1.29
2024-01-11T11:26:42.228Z,-1.29
2024-01-11T11:27:42.150Z,-1.26
2024-01-11T11:28:42.126Z,-1.25
2024-01-11T11:29:42.199Z,-1.25
2024-01-11T11:30:42.142Z,-1.21
2024-01-11T11:31:42.103Z,-1.18
2024-01-11T11:32:42.126Z,-1.11
2024-01-11T11:33:42.240Z,-1.08
2024-01-11T11:34:42.136Z,-1.05
2024-01-11T11:35:42.286Z,-1.04
2024-01-11T11:36:42.037Z,-1.03
2024-01-11T11:37:42.030Z,-1.00
2024-01-11T11:38:42.081Z,-0.94
2024-01-11T11:39:42.015Z,-0.92
2024-01-11T11:40:42.088Z,-0.90
2024-01-11T11:41:42.061Z,-0.92
2024-01-11T11:42:41.986Z,-0.92
2024-01-11T11:43:42.093Z,-0.92
2024-01-11T11:44:41.992Z,-0.89
2024-01-11T11:45:42.034Z,-0.90
2024-01-11T11:46:42.091Z,-0.86
2024-01-11T11:47:42.082Z,-0.79
2024-01-11T11:48:42.233Z,-0.75
2024-01-11T11:49:42.084Z,-0.71
2024-01-11T11:50:41.916Z,-0.70
2024-01-11T11:51:41.976Z,-0.71
2024-01-11T11:52:41.875Z,-0.68
2024-01-11T11:53:42.031Z,-0.67
2024-01-11T11:54:41.852Z,-0.66
2024-01-11T11:55:41.912Z,-0.67
2024-01-11T11:56:41.845Z,-0.66
2024-01-11T11:57:41.824Z,-0.67
2024-01-11T11:58:41.802Z,-0.66
2024-01-11T11:59:41.879Z,-0.64
2024-01-11T12:00:41.878Z,-0.63
2024-01-11T12:01:41.791Z,-0.61
2024-01-11T12:02:41.899Z,-0.61
2024-01-11T12:03:41.768Z,-0.60
2024-01-11T12:04:41.768Z,-0.60
2024-01-11T12:05:41.794Z,-0.58
2024-01-11T12:06:41.934Z,-0.55
2024-01-11T12:07:41.720Z,-0.53
2024-01-11T12:08:41.769Z,-0.53
2024-01-11T12:09:41.698Z,-0.52
2024-01-11T12:10:41.682Z,-0.52
2024-01-11T12:11:41.822Z,-0.50
2024-01-11T12:12:41.662Z,-0.47
2024-01-11T12:13:41.661Z,-0.45
2024-01-11T12:14:41.703Z,-0.45
2024-01-11T12:15:41.717Z,-0.43
2024-01-11T12:16:41.617Z,-0.42
2024-01-11T12:17:41.785Z,-0.42
2024-01-11T12:18:41.708Z,-0.39
2024-01-11T12:19:41.613Z,-0.38
2024-01-11T12:20:41.660Z,-0.34
2024-01-11T12:21:41.623Z,-0.29
2024-01-11T12:22:41.552Z,-0.25
2024-01-11T12:23:41.624Z,-0.21
2024-01-11T12:24:41.579Z,-0.20
2024-01-11T12:25:41.522Z,-0.20
2024-01-11T12:26:41.593Z,-0.17
2024-01-11T12:27:41.510Z,-0.16
2024-01-11T12:28:41.525Z,-0.13
2024-01-11T12:29:48.695Z,-0.11
2024-01-11T12:30:42.579Z,-0.10
2024-01-11T12:31:41.561Z,-0.07
2024-01-11T12:32:41.505Z,-0.04
2024-01-11T12:33:41.535Z,0.02
2024-01-11T12:34:41.511Z,0.02
2024-01-11T12:35:41.551Z,0.02
2024-01-11T12:36:41.457Z,0.02
2024-01-11T12:37:41.475Z,0.00
2024-01-11T12:38:41.440Z,0.02
2024-01-11T12:39:41.403Z,0.02
2024-01-11T12:40:41.677Z,0.02
2024-01-11T12:41:41.493Z,0.02
2024-01-11T12:42:41.367Z,0.00
2024-01-11T12:43:41.346Z,-0.01
2024-01-11T12:44:41.427Z,-0.01
2024-01-11T12:45:41.354Z,-0.03
2024-01-11T12:46:41.351Z,0.00
2024-01-11T12:47:41.449Z,0.00
2024-01-11T12:48:41.457Z,0.02
2024-01-11T12:49:41.307Z,0.05
2024-01-11T12:50:41.282Z,0.08
2024-01-11T12:51:41.327Z,0.09
2024-01-11T12:52:41.251Z,0.11
2024-01-11T12:53:41.897Z,0.12